Terminal Aerodrome Forecast
Issued by NWS

Home | Current Version | Previous Version | Graphics & Text | Print | Product List | Glossary On
Versions: 1 2 3 4 5 6 7 8 9 10 11 12 13 14 15 16 17 18 19 20 21 22 23
000
FTUS43 KLOT 250900 AAA
TAFGYY
TAF AMD
KGYY 250900Z 2509/2606 15008KT P6SM SCT050
     FM251400 16012KT P6SM SCT050 BKN250
     FM252100 19012KT P6SM VCSH BKN050
      TEMPO 2523/2602 3SM TSRA BKN025CB
     FM260400 27012KT P6SM SCT060 BKN250=

USA.gov is the U.S. government's official web portal to all federal, state and local government web resources and services.